sensor_id;sensor_type;location;lat;lon;timestamp;P1;durP1;ratioP1;P2;durP2;ratioP2
31424;SDS011;18054;51.572;7.372;2022-12-07T00:01:06;45.88;;;27.13;;
31424;SDS011;18054;51.572;7.372;2022-12-07T00:03:35;44.17;;;28.00;;
31424;SDS011;18054;51.572;7.372;2022-12-07T00:06:03;50.30;;;25.60;;
31424;SDS011;18054;51.572;7.372;2022-12-07T00:08:33;51.67;;;27.30;;
31424;SDS011;18054;51.572;7.372;2022-12-07T00:11:01;43.72;;;26.25;;
31424;SDS011;18054;51.572;7.372;2022-12-07T00:13:30;48.55;;;27.40;;
31424;SDS011;18054;51.572;7.372;2022-12-07T00:15:59;41.40;;;26.13;;
31424;SDS011;18054;51.572;7.372;2022-12-07T00:18:27;37.97;;;24.98;;
31424;SDS011;18054;51.572;7.372;2022-12-07T00:20:58;45.22;;;26.70;;
31424;SDS011;18054;51.572;7.372;2022-12-07T00:23:27;44.80;;;25.38;;
31424;SDS011;18054;51.572;7.372;2022-12-07T00:26:02;51.10;;;23.90;;
31424;SDS011;18054;51.572;7.372;2022-12-07T00:28:31;41.60;;;24.85;;
31424;SDS011;18054;51.572;7.372;2022-12-07T00:31:04;41.78;;;25.70;;
31424;SDS011;18054;51.572;7.372;2022-12-07T00:33:32;52.10;;;25.13;;
31424;SDS011;18054;51.572;7.372;2022-12-07T00:36:02;46.90;;;26.52;;
31424;SDS011;18054;51.572;7.372;2022-12-07T00:38:30;41.70;;;25.92;;
31424;SDS011;18054;51.572;7.372;2022-12-07T00:41:02;41.92;;;24.42;;
31424;SDS011;18054;51.572;7.372;2022-12-07T00:43:32;42.33;;;24.63;;
31424;SDS011;18054;51.572;7.372;2022-12-07T00:46:03;41.47;;;24.65;;
31424;SDS011;18054;51.572;7.372;2022-12-07T00:48:33;43.40;;;23.38;;
31424;SDS011;18054;51.572;7.372;2022-12-07T00:51:01;42.88;;;25.08;;
31424;SDS011;18054;51.572;7.372;2022-12-07T00:53:31;40.78;;;23.80;;
31424;SDS011;18054;51.572;7.372;2022-12-07T00:56:07;41.28;;;23.27;;
31424;SDS011;18054;51.572;7.372;2022-12-07T00:58:38;48.08;;;21.85;;
31424;SDS011;18054;51.572;7.372;2022-12-07T01:01:07;42.00;;;22.52;;
31424;SDS011;18054;51.572;7.372;2022-12-07T01:03:35;39.70;;;22.58;;
31424;SDS011;18054;51.572;7.372;2022-12-07T01:06:03;41.58;;;23.08;;
31424;SDS011;18054;51.572;7.372;2022-12-07T01:10:58;38.78;;;22.70;;
31424;SDS011;18054;51.572;7.372;2022-12-07T01:13:26;37.03;;;22.90;;
31424;SDS011;18054;51.572;7.372;2022-12-07T01:15:58;45.97;;;24.05;;
31424;SDS011;18054;51.572;7.372;2022-12-07T01:18:26;36.13;;;23.17;;
31424;SDS011;18054;51.572;7.372;2022-12-07T01:20:59;38.13;;;23.70;;
31424;SDS011;18054;51.572;7.372;2022-12-07T01:23:26;51.05;;;22.42;;
31424;SDS011;18054;51.572;7.372;2022-12-07T01:25:55;41.22;;;24.48;;
31424;SDS011;18054;51.572;7.372;2022-12-07T01:28:22;37.05;;;23.05;;
31424;SDS011;18054;51.572;7.372;2022-12-07T01:31:01;43.08;;;24.13;;
31424;SDS011;18054;51.572;7.372;2022-12-07T01:33:30;40.38;;;23.98;;
31424;SDS011;18054;51.572;7.372;2022-12-07T01:36:01;38.28;;;23.70;;
31424;SDS011;18054;51.572;7.372;2022-12-07T01:40:55;40.13;;;23.75;;
31424;SDS011;18054;51.572;7.372;2022-12-07T01:43:24;40.28;;;22.95;;
31424;SDS011;18054;51.572;7.372;2022-12-07T01:45:54;38.78;;;22.83;;
31424;SDS011;18054;51.572;7.372;2022-12-07T01:48:24;34.67;;;21.42;;
31424;SDS011;18054;51.572;7.372;2022-12-07T01:50:52;39.60;;;23.33;;
31424;SDS011;18054;51.572;7.372;2022-12-07T01:53:24;47.70;;;26.20;;
31424;SDS011;18054;51.572;7.372;2022-12-07T01:55:53;39.53;;;22.73;;
31424;SDS011;18054;51.572;7.372;2022-12-07T01:58:22;38.78;;;22.88;;
31424;SDS011;18054;51.572;7.372;2022-12-07T02:00:51;45.45;;;22.50;;
31424;SDS011;18054;51.572;7.372;2022-12-07T02:03:19;37.75;;;22.67;;
31424;SDS011;18054;51.572;7.372;2022-12-07T02:05:50;37.10;;;20.83;;
31424;SDS011;18054;51.572;7.372;2022-12-07T02:08:18;35.65;;;21.65;;
31424;SDS011;18054;51.572;7.372;2022-12-07T02:10:48;34.28;;;21.98;;
31424;SDS011;18054;51.572;7.372;2022-12-07T02:13:24;36.47;;;20.85;;
31424;SDS011;18054;51.572;7.372;2022-12-07T02:15:59;34.85;;;20.90;;
31424;SDS011;18054;51.572;7.372;2022-12-07T02:18:38;34.97;;;21.58;;
31424;SDS011;18054;51.572;7.372;2022-12-07T02:21:13;38.30;;;22.52;;
31424;SDS011;18054;51.572;7.372;2022-12-07T02:23:55;31.85;;;20.25;;
31424;SDS011;18054;51.572;7.372;2022-12-07T02:26:36;40.50;;;21.20;;
31424;SDS011;18054;51.572;7.372;2022-12-07T02:29:12;34.47;;;21.70;;
31424;SDS011;18054;51.572;7.372;2022-12-07T02:31:43;42.63;;;22.05;;
31424;SDS011;18054;51.572;7.372;2022-12-07T02:34:12;36.03;;;22.10;;
31424;SDS011;18054;51.572;7.372;2022-12-07T02:36:45;36.55;;;19.95;;
31424;SDS011;18054;51.572;7.372;2022-12-07T02:39:15;38.13;;;20.48;;
31424;SDS011;18054;51.572;7.372;2022-12-07T02:41:46;35.67;;;20.23;;
31424;SDS011;18054;51.572;7.372;2022-12-07T02:44:17;35.78;;;20.50;;
31424;SDS011;18054;51.572;7.372;2022-12-07T02:46:49;39.50;;;21.02;;
31424;SDS011;18054;51.572;7.372;2022-12-07T02:49:18;53.53;;;24.17;;
31424;SDS011;18054;51.572;7.372;2022-12-07T02:51:46;37.42;;;22.15;;
31424;SDS011;18054;51.572;7.372;2022-12-07T02:54:15;35.83;;;20.40;;
31424;SDS011;18054;51.572;7.372;2022-12-07T02:56:48;40.08;;;21.30;;
31424;SDS011;18054;51.572;7.372;2022-12-07T02:59:23;40.42;;;21.40;;
31424;SDS011;18054;51.572;7.372;2022-12-07T03:01:56;34.08;;;21.00;;
31424;SDS011;18054;51.572;7.372;2022-12-07T03:04:29;33.47;;;20.85;;
31424;SDS011;18054;51.572;7.372;2022-12-07T03:07:00;38.78;;;21.17;;
31424;SDS011;18054;51.572;7.372;2022-12-07T03:09:31;39.42;;;21.30;;
31424;SDS011;18054;51.572;7.372;2022-12-07T03:12:01;32.67;;;20.58;;
31424;SDS011;18054;51.572;7.372;2022-12-07T03:14:34;37.78;;;20.88;;
31424;SDS011;18054;51.572;7.372;2022-12-07T03:17:04;37.00;;;21.23;;
31424;SDS011;18054;51.572;7.372;2022-12-07T03:19:35;38.60;;;20.85;;
31424;SDS011;18054;51.572;7.372;2022-12-07T03:22:07;37.80;;;22.05;;
31424;SDS011;18054;51.572;7.372;2022-12-07T03:24:42;41.88;;;21.92;;
31424;SDS011;18054;51.572;7.372;2022-12-07T03:27:11;37.20;;;21.27;;
31424;SDS011;18054;51.572;7.372;2022-12-07T03:29:42;43.40;;;22.55;;
31424;SDS011;18054;51.572;7.372;2022-12-07T03:32:12;38.78;;;22.33;;
31424;SDS011;18054;51.572;7.372;2022-12-07T03:34:44;38.05;;;22.20;;
31424;SDS011;18054;51.572;7.372;2022-12-07T03:37:14;45.05;;;24.63;;
31424;SDS011;18054;51.572;7.372;2022-12-07T03:39:46;43.70;;;24.60;;
31424;SDS011;18054;51.572;7.372;2022-12-07T03:42:21;52.30;;;27.55;;
31424;SDS011;18054;51.572;7.372;2022-12-07T03:44:50;65.93;;;28.08;;
31424;SDS011;18054;51.572;7.372;2022-12-07T03:47:19;57.90;;;28.58;;
31424;SDS011;18054;51.572;7.372;2022-12-07T03:49:54;62.58;;;31.27;;
31424;SDS011;18054;51.572;7.372;2022-12-07T03:52:26;65.97;;;31.52;;
31424;SDS011;18054;51.572;7.372;2022-12-07T03:54:56;62.03;;;33.22;;
31424;SDS011;18054;51.572;7.372;2022-12-07T03:57:28;55.17;;;30.60;;
31424;SDS011;18054;51.572;7.372;2022-12-07T03:59:59;53.10;;;29.27;;
31424;SDS011;18054;51.572;7.372;2022-12-07T04:02:37;58.47;;;31.23;;
31424;SDS011;18054;51.572;7.372;2022-12-07T04:05:06;63.80;;;29.75;;
31424;SDS011;18054;51.572;7.372;2022-12-07T04:10:01;56.55;;;28.50;;
31424;SDS011;18054;51.572;7.372;2022-12-07T04:12:31;50.95;;;25.92;;
31424;SDS011;18054;51.572;7.372;2022-12-07T04:15:03;51.03;;;27.55;;
31424;SDS011;18054;51.572;7.372;2022-12-07T04:17:30;49.00;;;25.70;;
31424;SDS011;18054;51.572;7.372;2022-12-07T04:19:58;61.65;;;28.90;;
31424;SDS011;18054;51.572;7.372;2022-12-07T04:22:26;60.30;;;27.48;;
31424;SDS011;18054;51.572;7.372;2022-12-07T04:24:55;49.95;;;26.70;;
31424;SDS011;18054;51.572;7.372;2022-12-07T04:27:25;50.08;;;27.92;;
31424;SDS011;18054;51.572;7.372;2022-12-07T04:29:52;55.92;;;28.27;;
31424;SDS011;18054;51.572;7.372;2022-12-07T04:32:23;58.42;;;28.70;;
31424;SDS011;18054;51.572;7.372;2022-12-07T04:34:54;54.58;;;28.83;;
31424;SDS011;18054;51.572;7.372;2022-12-07T04:37:22;52.17;;;26.88;;
31424;SDS011;18054;51.572;7.372;2022-12-07T04:39:51;56.97;;;26.92;;
31424;SDS011;18054;51.572;7.372;2022-12-07T04:42:18;57.70;;;29.20;;
31424;SDS011;18054;51.572;7.372;2022-12-07T04:44:48;47.17;;;25.90;;
31424;SDS011;18054;51.572;7.372;2022-12-07T04:47:20;48.63;;;27.20;;
31424;SDS011;18054;51.572;7.372;2022-12-07T04:49:48;42.65;;;26.02;;
31424;SDS011;18054;51.572;7.372;2022-12-07T04:52:19;55.55;;;27.73;;
31424;SDS011;18054;51.572;7.372;2022-12-07T04:54:55;48.97;;;27.15;;
31424;SDS011;18054;51.572;7.372;2022-12-07T04:57:25;55.28;;;27.17;;
31424;SDS011;18054;51.572;7.372;2022-12-07T04:59:55;49.90;;;27.67;;
31424;SDS011;18054;51.572;7.372;2022-12-07T05:02:25;59.55;;;27.05;;
31424;SDS011;18054;51.572;7.372;2022-12-07T05:04:56;47.17;;;26.33;;
31424;SDS011;18054;51.572;7.372;2022-12-07T05:07:25;61.90;;;27.15;;
31424;SDS011;18054;51.572;7.372;2022-12-07T05:09:56;47.97;;;26.85;;
31424;SDS011;18054;51.572;7.372;2022-12-07T05:12:28;49.65;;;27.05;;
31424;SDS011;18054;51.572;7.372;2022-12-07T05:14:55;60.03;;;26.63;;
31424;SDS011;18054;51.572;7.372;2022-12-07T05:17:23;51.17;;;26.73;;
31424;SDS011;18054;51.572;7.372;2022-12-07T05:19:53;54.20;;;25.27;;
31424;SDS011;18054;51.572;7.372;2022-12-07T05:22:22;55.08;;;26.00;;
31424;SDS011;18054;51.572;7.372;2022-12-07T05:24:54;60.97;;;28.02;;
31424;SDS011;18054;51.572;7.372;2022-12-07T05:27:21;54.35;;;25.95;;
31424;SDS011;18054;51.572;7.372;2022-12-07T05:29:49;50.78;;;26.52;;
31424;SDS011;18054;51.572;7.372;2022-12-07T05:32:19;49.25;;;25.60;;
31424;SDS011;18054;51.572;7.372;2022-12-07T05:34:50;51.95;;;25.65;;
31424;SDS011;18054;51.572;7.372;2022-12-07T05:37:17;55.78;;;26.95;;
31424;SDS011;18054;51.572;7.372;2022-12-07T05:39:46;47.75;;;25.98;;
31424;SDS011;18054;51.572;7.372;2022-12-07T05:42:19;49.55;;;26.73;;
31424;SDS011;18054;51.572;7.372;2022-12-07T05:44:46;54.20;;;26.45;;
31424;SDS011;18054;51.572;7.372;2022-12-07T05:47:14;55.17;;;25.00;;
31424;SDS011;18054;51.572;7.372;2022-12-07T05:49:46;51.08;;;25.60;;
31424;SDS011;18054;51.572;7.372;2022-12-07T05:52:14;47.95;;;24.25;;
31424;SDS011;18054;51.572;7.372;2022-12-07T05:54:42;54.92;;;24.77;;
31424;SDS011;18054;51.572;7.372;2022-12-07T05:57:11;51.85;;;25.83;;
31424;SDS011;18054;51.572;7.372;2022-12-07T05:59:39;48.35;;;25.00;;
31424;SDS011;18054;51.572;7.372;2022-12-07T06:02:08;45.08;;;23.85;;
31424;SDS011;18054;51.572;7.372;2022-12-07T06:04:39;47.30;;;23.98;;
31424;SDS011;18054;51.572;7.372;2022-12-07T06:07:09;45.95;;;23.35;;
31424;SDS011;18054;51.572;7.372;2022-12-07T06:09:37;45.45;;;25.65;;
31424;SDS011;18054;51.572;7.372;2022-12-07T06:12:05;49.63;;;25.85;;
31424;SDS011;18054;51.572;7.372;2022-12-07T06:14:51;48.33;;;23.17;;
31424;SDS011;18054;51.572;7.372;2022-12-07T06:17:21;45.10;;;24.25;;
31424;SDS011;18054;51.572;7.372;2022-12-07T06:19:48;58.40;;;23.92;;
31424;SDS011;18054;51.572;7.372;2022-12-07T06:22:15;46.88;;;24.15;;
31424;SDS011;18054;51.572;7.372;2022-12-07T06:27:14;43.92;;;22.67;;
31424;SDS011;18054;51.572;7.372;2022-12-07T06:29:41;53.97;;;22.70;;
31424;SDS011;18054;51.572;7.372;2022-12-07T06:32:10;61.97;;;23.00;;
31424;SDS011;18054;51.572;7.372;2022-12-07T06:34:38;46.13;;;23.65;;
31424;SDS011;18054;51.572;7.372;2022-12-07T06:37:08;49.15;;;22.67;;
31424;SDS011;18054;51.572;7.372;2022-12-07T06:39:35;41.60;;;22.80;;
31424;SDS011;18054;51.572;7.372;2022-12-07T06:42:03;44.33;;;22.63;;
31424;SDS011;18054;51.572;7.372;2022-12-07T06:44:35;39.88;;;21.73;;
31424;SDS011;18054;51.572;7.372;2022-12-07T06:47:05;44.22;;;21.65;;
31424;SDS011;18054;51.572;7.372;2022-12-07T06:49:57;37.15;;;20.33;;
31424;SDS011;18054;51.572;7.372;2022-12-07T06:52:27;53.05;;;23.38;;
31424;SDS011;18054;51.572;7.372;2022-12-07T06:54:57;51.90;;;22.98;;
31424;SDS011;18054;51.572;7.372;2022-12-07T06:57:24;50.20;;;22.08;;
31424;SDS011;18054;51.572;7.372;2022-12-07T06:59:52;45.53;;;22.45;;
31424;SDS011;18054;51.572;7.372;2022-12-07T07:02:21;43.83;;;21.35;;
31424;SDS011;18054;51.572;7.372;2022-12-07T07:04:51;38.05;;;21.58;;
31424;SDS011;18054;51.572;7.372;2022-12-07T07:07:23;48.85;;;23.77;;
31424;SDS011;18054;51.572;7.372;2022-12-07T07:09:50;50.75;;;24.45;;
31424;SDS011;18054;51.572;7.372;2022-12-07T07:12:18;54.72;;;22.58;;
31424;SDS011;18054;51.572;7.372;2022-12-07T07:14:47;47.25;;;20.00;;
31424;SDS011;18054;51.572;7.372;2022-12-07T07:17:17;60.33;;;21.80;;
31424;SDS011;18054;51.572;7.372;2022-12-07T07:19:45;51.40;;;23.05;;
31424;SDS011;18054;51.572;7.372;2022-12-07T07:22:12;50.17;;;23.05;;
31424;SDS011;18054;51.572;7.372;2022-12-07T07:24:41;54.20;;;24.45;;
31424;SDS011;18054;51.572;7.372;2022-12-07T07:27:09;47.35;;;22.35;;
31424;SDS011;18054;51.572;7.372;2022-12-07T07:29:38;55.22;;;22.55;;
31424;SDS011;18054;51.572;7.372;2022-12-07T07:32:05;43.85;;;20.75;;
31424;SDS011;18054;51.572;7.372;2022-12-07T07:34:33;51.75;;;23.13;;
31424;SDS011;18054;51.572;7.372;2022-12-07T07:37:01;45.15;;;24.00;;
31424;SDS011;18054;51.572;7.372;2022-12-07T07:39:28;42.88;;;19.52;;
31424;SDS011;18054;51.572;7.372;2022-12-07T07:41:57;51.20;;;21.98;;
31424;SDS011;18054;51.572;7.372;2022-12-07T07:44:26;43.20;;;22.23;;
31424;SDS011;18054;51.572;7.372;2022-12-07T07:47:00;46.70;;;21.63;;
31424;SDS011;18054;51.572;7.372;2022-12-07T07:49:27;53.92;;;20.90;;
31424;SDS011;18054;51.572;7.372;2022-12-07T07:51:55;54.45;;;24.45;;
31424;SDS011;18054;51.572;7.372;2022-12-07T07:54:22;44.20;;;21.98;;
31424;SDS011;18054;51.572;7.372;2022-12-07T07:56:50;66.18;;;22.80;;
31424;SDS011;18054;51.572;7.372;2022-12-07T07:59:18;39.92;;;21.88;;
31424;SDS011;18054;51.572;7.372;2022-12-07T08:01:46;53.95;;;21.23;;
31424;SDS011;18054;51.572;7.372;2022-12-07T08:04:13;51.95;;;22.15;;
31424;SDS011;18054;51.572;7.372;2022-12-07T08:06:42;42.03;;;22.08;;
31424;SDS011;18054;51.572;7.372;2022-12-07T08:09:12;47.80;;;22.95;;
31424;SDS011;18054;51.572;7.372;2022-12-07T08:11:39;46.22;;;21.27;;
31424;SDS011;18054;51.572;7.372;2022-12-07T08:14:09;51.67;;;21.20;;
31424;SDS011;18054;51.572;7.372;2022-12-07T08:16:40;53.00;;;22.45;;
31424;SDS011;18054;51.572;7.372;2022-12-07T08:19:09;49.08;;;21.60;;
31424;SDS011;18054;51.572;7.372;2022-12-07T08:21:37;44.65;;;20.58;;
31424;SDS011;18054;51.572;7.372;2022-12-07T08:24:04;43.20;;;19.20;;
31424;SDS011;18054;51.572;7.372;2022-12-07T08:26:35;42.65;;;20.63;;
31424;SDS011;18054;51.572;7.372;2022-12-07T08:29:02;46.40;;;21.00;;
31424;SDS011;18054;51.572;7.372;2022-12-07T08:31:32;37.83;;;18.90;;
31424;SDS011;18054;51.572;7.372;2022-12-07T08:34:01;38.05;;;17.63;;
31424;SDS011;18054;51.572;7.372;2022-12-07T08:36:30;43.58;;;18.30;;
31424;SDS011;18054;51.572;7.372;2022-12-07T08:38:58;44.47;;;17.90;;
31424;SDS011;18054;51.572;7.372;2022-12-07T08:41:54;46.80;;;16.52;;
31424;SDS011;18054;51.572;7.372;2022-12-07T08:44:21;34.30;;;15.40;;
31424;SDS011;18054;51.572;7.372;2022-12-07T08:46:50;24.70;;;13.68;;
31424;SDS011;18054;51.572;7.372;2022-12-07T08:49:21;35.15;;;15.75;;
31424;SDS011;18054;51.572;7.372;2022-12-07T08:51:49;39.65;;;15.32;;
31424;SDS011;18054;51.572;7.372;2022-12-07T08:54:17;41.17;;;15.48;;
31424;SDS011;18054;51.572;7.372;2022-12-07T08:56:47;34.03;;;13.70;;
31424;SDS011;18054;51.572;7.372;2022-12-07T08:59:22;32.33;;;13.27;;
31424;SDS011;18054;51.572;7.372;2022-12-07T09:01:50;34.10;;;13.93;;
31424;SDS011;18054;51.572;7.372;2022-12-07T09:04:19;26.90;;;14.25;;
31424;SDS011;18054;51.572;7.372;2022-12-07T09:06:49;29.83;;;13.07;;
31424;SDS011;18054;51.572;7.372;2022-12-07T09:09:16;28.00;;;11.75;;
31424;SDS011;18054;51.572;7.372;2022-12-07T09:11:46;38.70;;;13.38;;
31424;SDS011;18054;51.572;7.372;2022-12-07T09:14:17;32.88;;;12.13;;
31424;SDS011;18054;51.572;7.372;2022-12-07T09:16:45;28.10;;;12.07;;
31424;SDS011;18054;51.572;7.372;2022-12-07T09:19:13;27.30;;;11.95;;
31424;SDS011;18054;51.572;7.372;2022-12-07T09:24:09;24.55;;;11.55;;
31424;SDS011;18054;51.572;7.372;2022-12-07T09:26:38;29.73;;;11.65;;
31424;SDS011;18054;51.572;7.372;2022-12-07T09:29:06;36.08;;;11.75;;
31424;SDS011;18054;51.572;7.372;2022-12-07T09:31:35;34.40;;;13.23;;
31424;SDS011;18054;51.572;7.372;2022-12-07T09:34:03;25.63;;;10.98;;
31424;SDS011;18054;51.572;7.372;2022-12-07T09:36:34;30.23;;;12.27;;
31424;SDS011;18054;51.572;7.372;2022-12-07T09:39:03;37.28;;;11.10;;
31424;SDS011;18054;51.572;7.372;2022-12-07T09:41:33;28.60;;;10.85;;
31424;SDS011;18054;51.572;7.372;2022-12-07T09:44:06;26.13;;;11.63;;
31424;SDS011;18054;51.572;7.372;2022-12-07T09:46:38;23.73;;;11.43;;
31424;SDS011;18054;51.572;7.372;2022-12-07T09:49:08;28.42;;;11.63;;
31424;SDS011;18054;51.572;7.372;2022-12-07T09:51:36;29.42;;;12.75;;
31424;SDS011;18054;51.572;7.372;2022-12-07T09:54:05;31.70;;;11.52;;
31424;SDS011;18054;51.572;7.372;2022-12-07T09:56:34;30.58;;;11.05;;
31424;SDS011;18054;51.572;7.372;2022-12-07T09:59:02;27.98;;;9.63;;
31424;SDS011;18054;51.572;7.372;2022-12-07T10:01:32;25.55;;;9.35;;
31424;SDS011;18054;51.572;7.372;2022-12-07T10:04:06;22.40;;;10.27;;
31424;SDS011;18054;51.572;7.372;2022-12-07T10:09:08;28.88;;;9.68;;
31424;SDS011;18054;51.572;7.372;2022-12-07T10:14:25;20.83;;;8.82;;
31424;SDS011;18054;51.572;7.372;2022-12-07T10:17:31;30.02;;;9.73;;
31424;SDS011;18054;51.572;7.372;2022-12-07T10:22:54;22.73;;;8.60;;
31424;SDS011;18054;51.572;7.372;2022-12-07T10:25:22;23.73;;;8.35;;
31424;SDS011;18054;51.572;7.372;2022-12-07T10:28:03;21.08;;;8.73;;
31424;SDS011;18054;51.572;7.372;2022-12-07T10:30:47;25.02;;;7.60;;
31424;SDS011;18054;51.572;7.372;2022-12-07T10:33:22;21.25;;;6.38;;
31424;SDS011;18054;51.572;7.372;2022-12-07T10:35:57;19.10;;;10.10;;
31424;SDS011;18054;51.572;7.372;2022-12-07T10:38:27;25.33;;;7.65;;
31424;SDS011;18054;51.572;7.372;2022-12-07T10:41:03;17.60;;;6.97;;
31424;SDS011;18054;51.572;7.372;2022-12-07T10:43:34;36.80;;;7.50;;
31424;SDS011;18054;51.572;7.372;2022-12-07T10:46:33;34.55;;;7.10;;
31424;SDS011;18054;51.572;7.372;2022-12-07T10:49:09;23.20;;;6.82;;
31424;SDS011;18054;51.572;7.372;2022-12-07T10:51:45;23.50;;;6.72;;
31424;SDS011;18054;51.572;7.372;2022-12-07T10:54:15;16.23;;;6.15;;
31424;SDS011;18054;51.572;7.372;2022-12-07T10:56:52;19.70;;;6.88;;
31424;SDS011;18054;51.572;7.372;2022-12-07T10:59:28;22.52;;;6.05;;
31424;SDS011;18054;51.572;7.372;2022-12-07T11:02:02;18.73;;;6.35;;
31424;SDS011;18054;51.572;7.372;2022-12-07T11:04:35;20.42;;;6.53;;
31424;SDS011;18054;51.572;7.372;2022-12-07T11:07:08;31.75;;;7.85;;
31424;SDS011;18054;51.572;7.372;2022-12-07T11:12:42;16.38;;;5.63;;
31424;SDS011;18054;51.572;7.372;2022-12-07T11:15:15;25.00;;;6.45;;
31424;SDS011;18054;51.572;7.372;2022-12-07T11:17:48;24.15;;;6.80;;
31424;SDS011;18054;51.572;7.372;2022-12-07T11:20:23;12.68;;;5.47;;
31424;SDS011;18054;51.572;7.372;2022-12-07T11:22:58;26.02;;;5.95;;
31424;SDS011;18054;51.572;7.372;2022-12-07T11:25:31;13.60;;;5.75;;
31424;SDS011;18054;51.572;7.372;2022-12-07T11:28:08;15.02;;;6.13;;
31424;SDS011;18054;51.572;7.372;2022-12-07T11:30:42;15.40;;;6.60;;
31424;SDS011;18054;51.572;7.372;2022-12-07T11:33:17;23.00;;;6.10;;
31424;SDS011;18054;51.572;7.372;2022-12-07T11:35:46;20.73;;;6.68;;
31424;SDS011;18054;51.572;7.372;2022-12-07T11:38:20;19.52;;;6.70;;
31424;SDS011;18054;51.572;7.372;2022-12-07T11:40:56;27.58;;;7.93;;
31424;SDS011;18054;51.572;7.372;2022-12-07T11:43:41;14.65;;;5.88;;
31424;SDS011;18054;51.572;7.372;2022-12-07T11:46:12;18.45;;;6.32;;
31424;SDS011;18054;51.572;7.372;2022-12-07T11:48:47;19.65;;;6.05;;
31424;SDS011;18054;51.572;7.372;2022-12-07T11:51:18;23.95;;;6.20;;
31424;SDS011;18054;51.572;7.372;2022-12-07T11:53:49;21.88;;;6.95;;
31424;SDS011;18054;51.572;7.372;2022-12-07T11:56:20;16.38;;;5.63;;
31424;SDS011;18054;51.572;7.372;2022-12-07T11:58:48;26.98;;;6.32;;
31424;SDS011;18054;51.572;7.372;2022-12-07T12:01:24;15.40;;;5.60;;
31424;SDS011;18054;51.572;7.372;2022-12-07T12:03:56;13.07;;;5.95;;
31424;SDS011;18054;51.572;7.372;2022-12-07T12:06:26;17.17;;;5.70;;
31424;SDS011;18054;51.572;7.372;2022-12-07T12:08:59;16.08;;;6.15;;
31424;SDS011;18054;51.572;7.372;2022-12-07T12:14:54;15.20;;;5.90;;
31424;SDS011;18054;51.572;7.372;2022-12-07T12:17:43;24.05;;;9.10;;
31424;SDS011;18054;51.572;7.372;2022-12-07T12:20:22;18.25;;;5.78;;
31424;SDS011;18054;51.572;7.372;2022-12-07T12:22:53;15.55;;;5.30;;
31424;SDS011;18054;51.572;7.372;2022-12-07T12:25:23;15.63;;;5.72;;
31424;SDS011;18054;51.572;7.372;2022-12-07T12:30:33;18.65;;;4.78;;
31424;SDS011;18054;51.572;7.372;2022-12-07T12:33:02;15.02;;;4.72;;
31424;SDS011;18054;51.572;7.372;2022-12-07T12:35:32;15.32;;;3.95;;
31424;SDS011;18054;51.572;7.372;2022-12-07T12:40:46;23.05;;;4.95;;
31424;SDS011;18054;51.572;7.372;2022-12-07T12:48:52;23.92;;;5.97;;
31424;SDS011;18054;51.572;7.372;2022-12-07T12:54:08;14.45;;;3.42;;
31424;SDS011;18054;51.572;7.372;2022-12-07T12:56:38;15.38;;;3.50;;
31424;SDS011;18054;51.572;7.372;2022-12-07T13:02:09;12.23;;;3.72;;
31424;SDS011;18054;51.572;7.372;2022-12-07T13:10:08;16.30;;;3.80;;
31424;SDS011;18054;51.572;7.372;2022-12-07T13:12:54;13.57;;;4.38;;
31424;SDS011;18054;51.572;7.372;2022-12-07T13:15:33;12.00;;;3.50;;
31424;SDS011;18054;51.572;7.372;2022-12-07T13:18:04;17.20;;;3.35;;
31424;SDS011;18054;51.572;7.372;2022-12-07T13:20:50;13.48;;;3.58;;
31424;SDS011;18054;51.572;7.372;2022-12-07T13:23:25;17.50;;;4.05;;
31424;SDS011;18054;51.572;7.372;2022-12-07T13:26:11;14.95;;;2.78;;
31424;SDS011;18054;51.572;7.372;2022-12-07T13:28:43;19.27;;;4.35;;
31424;SDS011;18054;51.572;7.372;2022-12-07T13:31:19;24.70;;;3.72;;
31424;SDS011;18054;51.572;7.372;2022-12-07T13:33:49;15.07;;;2.88;;
31424;SDS011;18054;51.572;7.372;2022-12-07T13:36:20;16.13;;;3.22;;
31424;SDS011;18054;51.572;7.372;2022-12-07T13:38:53;13.60;;;3.80;;
31424;SDS011;18054;51.572;7.372;2022-12-07T13:41:24;20.02;;;3.67;;
31424;SDS011;18054;51.572;7.372;2022-12-07T13:43:53;23.17;;;3.38;;
31424;SDS011;18054;51.572;7.372;2022-12-07T13:46:24;17.05;;;2.83;;
31424;SDS011;18054;51.572;7.372;2022-12-07T13:48:56;8.30;;;3.03;;
31424;SDS011;18054;51.572;7.372;2022-12-07T13:51:24;9.23;;;3.17;;
31424;SDS011;18054;51.572;7.372;2022-12-07T13:53:53;16.13;;;3.75;;
31424;SDS011;18054;51.572;7.372;2022-12-07T13:56:24;21.23;;;4.43;;
31424;SDS011;18054;51.572;7.372;2022-12-07T13:58:56;20.23;;;3.10;;
31424;SDS011;18054;51.572;7.372;2022-12-07T14:01:26;16.55;;;3.38;;
31424;SDS011;18054;51.572;7.372;2022-12-07T14:03:55;27.20;;;6.22;;
31424;SDS011;18054;51.572;7.372;2022-12-07T14:06:23;16.38;;;3.70;;
31424;SDS011;18054;51.572;7.372;2022-12-07T14:09:05;12.82;;;2.85;;
31424;SDS011;18054;51.572;7.372;2022-12-07T14:11:33;12.68;;;2.33;;
31424;SDS011;18054;51.572;7.372;2022-12-07T14:14:02;12.95;;;2.83;;
31424;SDS011;18054;51.572;7.372;2022-12-07T14:16:31;13.85;;;2.70;;
31424;SDS011;18054;51.572;7.372;2022-12-07T14:19:01;10.13;;;2.53;;
31424;SDS011;18054;51.572;7.372;2022-12-07T14:21:30;14.32;;;2.97;;
31424;SDS011;18054;51.572;7.372;2022-12-07T14:24:11;11.32;;;2.50;;
31424;SDS011;18054;51.572;7.372;2022-12-07T14:26:39;15.32;;;2.60;;
31424;SDS011;18054;51.572;7.372;2022-12-07T14:29:31;19.35;;;2.65;;
31424;SDS011;18054;51.572;7.372;2022-12-07T14:32:10;8.88;;;2.78;;
31424;SDS011;18054;51.572;7.372;2022-12-07T14:34:52;13.07;;;2.80;;
31424;SDS011;18054;51.572;7.372;2022-12-07T14:37:23;15.60;;;4.25;;
31424;SDS011;18054;51.572;7.372;2022-12-07T14:40:00;13.88;;;3.45;;
31424;SDS011;18054;51.572;7.372;2022-12-07T14:42:31;13.02;;;4.00;;
31424;SDS011;18054;51.572;7.372;2022-12-07T14:45:01;18.27;;;3.22;;
31424;SDS011;18054;51.572;7.372;2022-12-07T14:47:29;18.27;;;3.90;;
31424;SDS011;18054;51.572;7.372;2022-12-07T14:50:17;11.27;;;2.83;;
31424;SDS011;18054;51.572;7.372;2022-12-07T14:52:48;13.77;;;3.38;;
31424;SDS011;18054;51.572;7.372;2022-12-07T14:55:36;7.95;;;2.72;;
31424;SDS011;18054;51.572;7.372;2022-12-07T14:58:05;13.00;;;3.40;;
31424;SDS011;18054;51.572;7.372;2022-12-07T15:00:35;22.02;;;4.22;;
31424;SDS011;18054;51.572;7.372;2022-12-07T15:03:02;22.60;;;3.60;;
31424;SDS011;18054;51.572;7.372;2022-12-07T15:05:30;10.23;;;3.72;;
31424;SDS011;18054;51.572;7.372;2022-12-07T15:07:59;12.15;;;3.60;;
31424;SDS011;18054;51.572;7.372;2022-12-07T15:10:32;17.45;;;4.45;;
31424;SDS011;18054;51.572;7.372;2022-12-07T15:13:01;22.42;;;4.72;;
31424;SDS011;18054;51.572;7.372;2022-12-07T15:15:44;13.65;;;4.22;;
31424;SDS011;18054;51.572;7.372;2022-12-07T15:18:11;11.73;;;5.65;;
31424;SDS011;18054;51.572;7.372;2022-12-07T15:20:39;18.25;;;6.03;;
31424;SDS011;18054;51.572;7.372;2022-12-07T15:23:07;17.40;;;6.50;;
31424;SDS011;18054;51.572;7.372;2022-12-07T15:25:41;14.80;;;6.38;;
31424;SDS011;18054;51.572;7.372;2022-12-07T15:28:08;15.35;;;5.40;;
31424;SDS011;18054;51.572;7.372;2022-12-07T15:30:38;23.23;;;6.10;;
31424;SDS011;18054;51.572;7.372;2022-12-07T15:35:39;24.42;;;6.18;;
31424;SDS011;18054;51.572;7.372;2022-12-07T15:38:06;19.95;;;6.15;;
31424;SDS011;18054;51.572;7.372;2022-12-07T15:45:30;17.80;;;6.50;;